Cape Campbell, New Zealand
Current Conditions -  °F | °C
As of 7:30 PM on Thursday 27 Nov 2014 (Local Time) from NZWN Reporting Station
Clear Clear  
Wind Chill: 63°   Ceiling: Unl
Heat Index: 63°   Visibility: 6mi
Dew Point: 50°   Wind: 21mph
Humidity: 63%   Direction: 330°NNW
Pressure: 29.59"   Gusts: 32mph
Location:  41.72°S, 174.26°E
Report Text: NZWN 270630Z AUTO 33018G28KT 300V360 9999 NCD 17/10 Q1002 NOSIG
Loading
Personal Weather Stations






























Interactive Weather Map New forecast layout! Learn more

10-Day Weather Forecast

Advertisements
Track Severe Weather on mobile